Terminal Aerodrome Forecast
Issued by NWS Jacksonville, FL

Home | Current Version | Previous Version | Text Only | Print | Product List | Glossary On
Versions: 1 2 3 4 5 6 7 8 9 10 11 12 13 14 15 16 17 18 19
000
FTUS42 KJAX 040754 AAA
TAFGNV
TAF AMD
KGNV 040754Z 0408/0506 24005KT P6SM SCT025
     FM041100 26008KT P6SM VCTS SCT020 SCT035CB OVC100
      TEMPO 0411/0414 VRB15G25KT 3SM +TSRA SCT015 BKN030CB OVC070
     FM041400 28009KT P6SM VCSH SCT020 BKN040 OVC100
     FM041600 29010KT P6SM SCT040 SCT150=

USA.gov is the U.S. government's official web portal to all federal, state and local government web resources and services.